sensor_id;sensor_type;location;lat;lon;timestamp;pressure;altitude;pressure_sealevel;temperature;humidity
19590;BME280;12231;42.782;23.388;2023-03-26T00:01:56;95053.06;;;11.01;100.00
19590;BME280;12231;42.782;23.388;2023-03-26T00:04:22;95052.34;;;11.12;100.00
19590;BME280;12231;42.782;23.388;2023-03-26T00:06:50;95057.16;;;11.17;100.00
19590;BME280;12231;42.782;23.388;2023-03-26T00:09:16;95061.59;;;11.15;100.00
19590;BME280;12231;42.782;23.388;2023-03-26T00:11:42;95061.44;;;11.05;100.00
19590;BME280;12231;42.782;23.388;2023-03-26T00:14:09;95051.72;;;11.08;100.00
19590;BME280;12231;42.782;23.388;2023-03-26T00:16:38;95050.16;;;11.06;100.00
19590;BME280;12231;42.782;23.388;2023-03-26T00:19:06;95055.91;;;10.86;100.00
19590;BME280;12231;42.782;23.388;2023-03-26T00:21:32;95057.38;;;10.77;100.00
19590;BME280;12231;42.782;23.388;2023-03-26T00:24:00;95053.78;;;10.17;100.00
19590;BME280;12231;42.782;23.388;2023-03-26T00:26:28;95046.28;;;10.27;100.00
19590;BME280;12231;42.782;23.388;2023-03-26T00:28:55;95039.34;;;10.52;100.00
19590;BME280;12231;42.782;23.388;2023-03-26T00:31:21;95042.84;;;10.64;100.00
19590;BME280;12231;42.782;23.388;2023-03-26T00:33:49;95039.88;;;10.70;100.00
19590;BME280;12231;42.782;23.388;2023-03-26T00:36:20;95039.66;;;10.73;100.00
19590;BME280;12231;42.782;23.388;2023-03-26T00:38:46;95038.53;;;10.52;100.00
19590;BME280;12231;42.782;23.388;2023-03-26T00:41:14;95047.28;;;10.49;100.00
19590;BME280;12231;42.782;23.388;2023-03-26T00:43:47;95050.03;;;9.96;100.00
19590;BME280;12231;42.782;23.388;2023-03-26T00:46:14;95053.84;;;9.51;100.00
19590;BME280;12231;42.782;23.388;2023-03-26T00:48:41;95048.78;;;9.50;100.00
19590;BME280;12231;42.782;23.388;2023-03-26T00:51:08;95044.28;;;9.53;100.00
19590;BME280;12231;42.782;23.388;2023-03-26T00:53:34;95046.19;;;9.64;100.00
19590;BME280;12231;42.782;23.388;2023-03-26T00:56:02;95058.22;;;9.76;100.00
19590;BME280;12231;42.782;23.388;2023-03-26T00:58:27;95055.44;;;9.79;100.00
19590;BME280;12231;42.782;23.388;2023-03-26T01:00:58;95054.53;;;9.80;100.00
19590;BME280;12231;42.782;23.388;2023-03-26T01:03:26;95046.19;;;9.77;100.00
19590;BME280;12231;42.782;23.388;2023-03-26T01:06:05;95050.50;;;9.76;100.00
19590;BME280;12231;42.782;23.388;2023-03-26T01:11:08;95058.75;;;9.81;100.00
19590;BME280;12231;42.782;23.388;2023-03-26T01:13:42;95073.31;;;9.95;100.00
19590;BME280;12231;42.782;23.388;2023-03-26T01:16:17;95072.91;;;10.01;100.00
19590;BME280;12231;42.782;23.388;2023-03-26T01:18:45;95064.44;;;9.86;100.00
19590;BME280;12231;42.782;23.388;2023-03-26T01:21:10;95073.78;;;9.87;100.00
19590;BME280;12231;42.782;23.388;2023-03-26T01:23:45;95077.94;;;10.02;100.00
19590;BME280;12231;42.782;23.388;2023-03-26T01:35:11;95093.28;;;9.91;100.00
19590;BME280;12231;42.782;23.388;2023-03-26T01:41:07;95094.72;;;9.95;100.00
19590;BME280;12231;42.782;23.388;2023-03-26T01:43:48;95083.28;;;9.99;100.00
19590;BME280;12231;42.782;23.388;2023-03-26T01:46:16;95092.28;;;10.06;100.00
19590;BME280;12231;42.782;23.388;2023-03-26T01:48:44;95090.81;;;10.02;100.00
19590;BME280;12231;42.782;23.388;2023-03-26T01:51:12;95099.28;;;10.04;100.00
19590;BME280;12231;42.782;23.388;2023-03-26T01:53:43;95096.59;;;10.06;100.00
19590;BME280;12231;42.782;23.388;2023-03-26T01:56:20;95100.66;;;10.10;100.00
19590;BME280;12231;42.782;23.388;2023-03-26T01:59:18;95090.50;;;10.07;100.00
19590;BME280;12231;42.782;23.388;2023-03-26T02:01:59;95091.75;;;10.01;100.00
19590;BME280;12231;42.782;23.388;2023-03-26T02:10:02;95081.91;;;9.81;100.00
19590;BME280;12231;42.782;23.388;2023-03-26T02:12:31;95081.28;;;9.77;100.00
19590;BME280;12231;42.782;23.388;2023-03-26T02:14:59;95090.81;;;9.63;100.00
19590;BME280;12231;42.782;23.388;2023-03-26T02:17:25;95095.63;;;9.55;100.00
19590;BME280;12231;42.782;23.388;2023-03-26T02:19:54;95080.78;;;9.46;100.00
19590;BME280;12231;42.782;23.388;2023-03-26T02:22:20;95081.44;;;9.49;100.00
19590;BME280;12231;42.782;23.388;2023-03-26T02:24:47;95082.16;;;9.25;100.00
19590;BME280;12231;42.782;23.388;2023-03-26T02:27:13;95077.03;;;9.11;100.00
19590;BME280;12231;42.782;23.388;2023-03-26T02:29:39;95067.28;;;9.16;100.00
19590;BME280;12231;42.782;23.388;2023-03-26T02:32:06;95067.56;;;9.11;100.00
19590;BME280;12231;42.782;23.388;2023-03-26T02:34:32;95072.72;;;9.11;100.00
19590;BME280;12231;42.782;23.388;2023-03-26T02:36:57;95072.06;;;9.08;100.00
19590;BME280;12231;42.782;23.388;2023-03-26T02:39:23;95074.00;;;9.18;100.00
19590;BME280;12231;42.782;23.388;2023-03-26T02:41:49;95078.88;;;9.09;100.00
19590;BME280;12231;42.782;23.388;2023-03-26T02:44:14;95083.63;;;9.15;100.00
19590;BME280;12231;42.782;23.388;2023-03-26T02:46:40;95080.75;;;8.93;100.00
19590;BME280;12231;42.782;23.388;2023-03-26T02:49:05;95092.38;;;8.98;100.00
19590;BME280;12231;42.782;23.388;2023-03-26T02:51:31;95092.13;;;8.89;100.00
19590;BME280;12231;42.782;23.388;2023-03-26T02:54:00;95094.00;;;8.73;100.00
19590;BME280;12231;42.782;23.388;2023-03-26T02:56:26;95092.31;;;8.72;100.00
19590;BME280;12231;42.782;23.388;2023-03-26T02:58:51;95102.97;;;8.66;100.00
19590;BME280;12231;42.782;23.388;2023-03-26T03:01:16;95110.47;;;8.69;100.00
19590;BME280;12231;42.782;23.388;2023-03-26T03:03:42;95112.50;;;8.50;100.00
19590;BME280;12231;42.782;23.388;2023-03-26T03:06:08;95117.47;;;8.39;100.00
19590;BME280;12231;42.782;23.388;2023-03-26T03:08:33;95127.53;;;8.27;100.00
19590;BME280;12231;42.782;23.388;2023-03-26T03:11:02;95121.06;;;8.20;100.00
19590;BME280;12231;42.782;23.388;2023-03-26T03:13:28;95129.28;;;8.41;100.00
19590;BME280;12231;42.782;23.388;2023-03-26T03:15:54;95131.94;;;8.40;100.00
19590;BME280;12231;42.782;23.388;2023-03-26T03:18:20;95136.31;;;8.38;100.00
19590;BME280;12231;42.782;23.388;2023-03-26T03:20:45;95134.22;;;8.30;100.00
19590;BME280;12231;42.782;23.388;2023-03-26T03:23:11;95134.66;;;8.22;100.00
19590;BME280;12231;42.782;23.388;2023-03-26T03:25:37;95139.63;;;8.40;100.00
19590;BME280;12231;42.782;23.388;2023-03-26T03:28:03;95140.47;;;8.26;100.00
19590;BME280;12231;42.782;23.388;2023-03-26T03:30:29;95153.31;;;8.40;100.00
19590;BME280;12231;42.782;23.388;2023-03-26T03:32:54;95156.34;;;8.32;100.00
19590;BME280;12231;42.782;23.388;2023-03-26T03:35:23;95154.06;;;8.42;100.00
19590;BME280;12231;42.782;23.388;2023-03-26T03:37:48;95151.41;;;8.44;100.00
19590;BME280;12231;42.782;23.388;2023-03-26T03:40:14;95144.50;;;8.44;100.00
19590;BME280;12231;42.782;23.388;2023-03-26T03:42:39;95149.31;;;8.50;100.00
19590;BME280;12231;42.782;23.388;2023-03-26T03:45:05;95140.94;;;8.47;100.00
19590;BME280;12231;42.782;23.388;2023-03-26T03:47:31;95145.44;;;8.43;100.00
19590;BME280;12231;42.782;23.388;2023-03-26T03:49:56;95147.38;;;8.54;100.00
19590;BME280;12231;42.782;23.388;2023-03-26T03:52:24;95146.09;;;8.61;100.00
19590;BME280;12231;42.782;23.388;2023-03-26T03:54:50;95153.59;;;8.64;100.00
19590;BME280;12231;42.782;23.388;2023-03-26T03:57:15;95158.22;;;8.73;100.00
19590;BME280;12231;42.782;23.388;2023-03-26T03:59:43;95156.00;;;8.81;100.00
19590;BME280;12231;42.782;23.388;2023-03-26T04:02:09;95164.47;;;8.83;100.00
19590;BME280;12231;42.782;23.388;2023-03-26T04:04:35;95165.25;;;9.11;100.00
19590;BME280;12231;42.782;23.388;2023-03-26T04:07:02;95167.41;;;8.91;100.00
19590;BME280;12231;42.782;23.388;2023-03-26T04:09:27;95164.81;;;9.05;100.00
19590;BME280;12231;42.782;23.388;2023-03-26T04:11:53;95166.19;;;9.10;100.00
19590;BME280;12231;42.782;23.388;2023-03-26T04:14:18;95175.63;;;9.24;100.00
19590;BME280;12231;42.782;23.388;2023-03-26T04:16:43;95178.72;;;9.29;100.00
19590;BME280;12231;42.782;23.388;2023-03-26T04:19:09;95185.06;;;9.37;100.00
19590;BME280;12231;42.782;23.388;2023-03-26T04:21:34;95192.50;;;9.42;100.00
19590;BME280;12231;42.782;23.388;2023-03-26T04:24:03;95199.31;;;9.29;100.00
19590;BME280;12231;42.782;23.388;2023-03-26T04:26:30;95205.72;;;9.36;100.00
19590;BME280;12231;42.782;23.388;2023-03-26T04:28:59;95217.66;;;9.37;100.00
19590;BME280;12231;42.782;23.388;2023-03-26T04:31:26;95218.13;;;9.29;100.00
19590;BME280;12231;42.782;23.388;2023-03-26T04:34:07;95219.44;;;9.36;100.00
19590;BME280;12231;42.782;23.388;2023-03-26T04:36:38;95221.22;;;9.48;100.00
19590;BME280;12231;42.782;23.388;2023-03-26T04:39:09;95226.47;;;9.61;100.00
19590;BME280;12231;42.782;23.388;2023-03-26T04:41:35;95227.38;;;9.60;100.00
19590;BME280;12231;42.782;23.388;2023-03-26T04:44:02;95233.75;;;9.81;100.00
19590;BME280;12231;42.782;23.388;2023-03-26T04:46:27;95238.13;;;9.66;100.00
19590;BME280;12231;42.782;23.388;2023-03-26T04:48:57;95232.47;;;9.88;100.00
19590;BME280;12231;42.782;23.388;2023-03-26T04:51:27;95241.47;;;9.95;100.00
19590;BME280;12231;42.782;23.388;2023-03-26T04:53:57;95239.50;;;10.13;100.00
19590;BME280;12231;42.782;23.388;2023-03-26T04:58:49;95246.59;;;11.25;100.00
19590;BME280;12231;42.782;23.388;2023-03-26T05:01:16;95260.00;;;11.43;100.00
19590;BME280;12231;42.782;23.388;2023-03-26T05:03:42;95263.41;;;11.43;100.00
19590;BME280;12231;42.782;23.388;2023-03-26T05:06:10;95269.47;;;11.55;100.00
19590;BME280;12231;42.782;23.388;2023-03-26T05:08:37;95263.81;;;11.25;100.00
19590;BME280;12231;42.782;23.388;2023-03-26T05:11:03;95264.84;;;11.22;100.00
19590;BME280;12231;42.782;23.388;2023-03-26T05:13:31;95269.41;;;11.19;100.00
19590;BME280;12231;42.782;23.388;2023-03-26T05:15:56;95272.91;;;11.43;100.00
19590;BME280;12231;42.782;23.388;2023-03-26T05:18:22;95268.03;;;11.51;100.00
19590;BME280;12231;42.782;23.388;2023-03-26T05:20:47;95280.03;;;11.64;100.00
19590;BME280;12231;42.782;23.388;2023-03-26T05:23:13;95271.16;;;12.28;100.00
19590;BME280;12231;42.782;23.388;2023-03-26T05:25:38;95279.88;;;12.85;92.98
19590;BME280;12231;42.782;23.388;2023-03-26T05:28:04;95287.22;;;13.59;89.07
19590;BME280;12231;42.782;23.388;2023-03-26T05:30:29;95296.00;;;14.45;82.76
19590;BME280;12231;42.782;23.388;2023-03-26T05:32:54;95289.25;;;14.85;81.33
19590;BME280;12231;42.782;23.388;2023-03-26T05:35:20;95289.44;;;13.86;84.37
19590;BME280;12231;42.782;23.388;2023-03-26T05:37:46;95280.72;;;15.14;80.45
19590;BME280;12231;42.782;23.388;2023-03-26T05:40:13;95283.31;;;15.46;78.58
19590;BME280;12231;42.782;23.388;2023-03-26T05:42:41;95279.50;;;16.29;74.26
19590;BME280;12231;42.782;23.388;2023-03-26T05:45:08;95264.31;;;17.58;69.73
19590;BME280;12231;42.782;23.388;2023-03-26T05:47:34;95254.56;;;17.97;66.32
19590;BME280;12231;42.782;23.388;2023-03-26T05:50:00;95246.84;;;18.94;64.03
19590;BME280;12231;42.782;23.388;2023-03-26T05:52:26;95245.41;;;19.61;60.99
19590;BME280;12231;42.782;23.388;2023-03-26T05:54:51;95246.78;;;20.06;59.79
19590;BME280;12231;42.782;23.388;2023-03-26T05:57:17;95225.69;;;21.70;58.11
19590;BME280;12231;42.782;23.388;2023-03-26T05:59:43;95237.88;;;22.18;52.07
19590;BME280;12231;42.782;23.388;2023-03-26T06:02:09;95233.28;;;21.41;53.89
19590;BME280;12231;42.782;23.388;2023-03-26T06:04:35;95234.97;;;22.05;52.17
19590;BME280;12231;42.782;23.388;2023-03-26T06:07:05;95233.66;;;22.01;52.58
19590;BME280;12231;42.782;23.388;2023-03-26T06:09:35;95228.22;;;21.31;52.97
19590;BME280;12231;42.782;23.388;2023-03-26T06:12:06;95237.38;;;21.27;52.78
19590;BME280;12231;42.782;23.388;2023-03-26T06:14:32;95237.69;;;20.76;53.49
19590;BME280;12231;42.782;23.388;2023-03-26T06:16:58;95239.03;;;21.20;52.87
19590;BME280;12231;42.782;23.388;2023-03-26T06:19:23;95243.22;;;21.94;50.48
19590;BME280;12231;42.782;23.388;2023-03-26T06:21:49;95249.69;;;20.37;55.13
19590;BME280;12231;42.782;23.388;2023-03-26T06:24:15;95262.25;;;19.92;56.98
19590;BME280;12231;42.782;23.388;2023-03-26T06:26:41;95260.13;;;20.95;54.06
19590;BME280;12231;42.782;23.388;2023-03-26T06:29:07;95270.19;;;20.58;53.11
19590;BME280;12231;42.782;23.388;2023-03-26T06:31:33;95265.44;;;21.19;51.86
19590;BME280;12231;42.782;23.388;2023-03-26T06:33:58;95260.25;;;22.52;48.94
19590;BME280;12231;42.782;23.388;2023-03-26T06:36:23;95247.38;;;23.70;45.53
19590;BME280;12231;42.782;23.388;2023-03-26T06:38:49;95246.59;;;24.43;43.44
19590;BME280;12231;42.782;23.388;2023-03-26T06:41:15;95256.94;;;22.04;46.66
19590;BME280;12231;42.782;23.388;2023-03-26T06:43:40;95242.19;;;23.62;45.16
19590;BME280;12231;42.782;23.388;2023-03-26T06:46:05;95242.84;;;24.52;42.92
19590;BME280;12231;42.782;23.388;2023-03-26T06:48:31;95251.41;;;24.39;43.20
19590;BME280;12231;42.782;23.388;2023-03-26T06:50:56;95254.38;;;23.41;45.06
19590;BME280;12231;42.782;23.388;2023-03-26T06:53:22;95254.31;;;24.00;43.11
19590;BME280;12231;42.782;23.388;2023-03-26T06:55:47;95254.28;;;23.34;45.04
19590;BME280;12231;42.782;23.388;2023-03-26T06:58:13;95252.03;;;24.56;42.02
19590;BME280;12231;42.782;23.388;2023-03-26T07:00:39;95249.94;;;25.43;40.68
19590;BME280;12231;42.782;23.388;2023-03-26T07:03:06;95264.75;;;22.66;46.59
19590;BME280;12231;42.782;23.388;2023-03-26T07:05:32;95262.16;;;24.08;42.72
19590;BME280;12231;42.782;23.388;2023-03-26T07:07:58;95257.75;;;24.30;44.05
19590;BME280;12231;42.782;23.388;2023-03-26T07:10:23;95253.84;;;24.91;42.46
19590;BME280;12231;42.782;23.388;2023-03-26T07:12:49;95253.34;;;25.65;38.07
19590;BME280;12231;42.782;23.388;2023-03-26T07:15:14;95246.81;;;26.16;38.28
19590;BME280;12231;42.782;23.388;2023-03-26T07:17:39;95263.78;;;23.58;44.02
19590;BME280;12231;42.782;23.388;2023-03-26T07:20:06;95252.72;;;24.64;39.97
19590;BME280;12231;42.782;23.388;2023-03-26T07:22:33;95253.09;;;21.84;44.28
19590;BME280;12231;42.782;23.388;2023-03-26T07:24:58;95250.06;;;24.64;40.34
19590;BME280;12231;42.782;23.388;2023-03-26T07:27:45;95242.53;;;22.99;42.82
19590;BME280;12231;42.782;23.388;2023-03-26T07:33:17;95238.31;;;24.46;40.95
19590;BME280;12231;42.782;23.388;2023-03-26T07:39:10;95222.31;;;26.82;35.35
19590;BME280;12231;42.782;23.388;2023-03-26T07:41:48;95246.47;;;21.96;44.27
19590;BME280;12231;42.782;23.388;2023-03-26T07:46:58;95250.81;;;21.48;46.01
19590;BME280;12231;42.782;23.388;2023-03-26T07:49:26;95248.94;;;23.20;43.08
19590;BME280;12231;42.782;23.388;2023-03-26T07:51:53;95243.19;;;25.20;37.96
19590;BME280;12231;42.782;23.388;2023-03-26T07:54:19;95243.41;;;25.39;37.05
19590;BME280;12231;42.782;23.388;2023-03-26T07:57:07;95249.22;;;26.11;35.49
19590;BME280;12231;42.782;23.388;2023-03-26T07:59:44;95247.59;;;26.57;34.60
19590;BME280;12231;42.782;23.388;2023-03-26T08:02:39;95238.25;;;27.09;34.31
19590;BME280;12231;42.782;23.388;2023-03-26T08:05:25;95247.53;;;26.31;34.40
19590;BME280;12231;42.782;23.388;2023-03-26T08:08:17;95247.19;;;26.94;34.20
19590;BME280;12231;42.782;23.388;2023-03-26T08:13:54;95228.88;;;26.05;36.42
19590;BME280;12231;42.782;23.388;2023-03-26T08:18:55;95223.44;;;27.60;33.19
19590;BME280;12231;42.782;23.388;2023-03-26T08:21:37;95241.31;;;22.10;41.47
19590;BME280;12231;42.782;23.388;2023-03-26T08:24:17;95252.63;;;21.56;43.05
19590;BME280;12231;42.782;23.388;2023-03-26T08:26:51;95242.47;;;20.97;44.99
19590;BME280;12231;42.782;23.388;2023-03-26T08:29:33;95233.69;;;24.33;37.40
19590;BME280;12231;42.782;23.388;2023-03-26T08:32:04;95226.59;;;25.26;34.55
19590;BME280;12231;42.782;23.388;2023-03-26T08:34:33;95230.16;;;27.36;32.75
19590;BME280;12231;42.782;23.388;2023-03-26T08:36:58;95228.75;;;28.63;29.28
19590;BME280;12231;42.782;23.388;2023-03-26T08:39:24;95230.63;;;28.93;30.10
19590;BME280;12231;42.782;23.388;2023-03-26T08:55:39;95231.88;;;24.04;34.50
19590;BME280;12231;42.782;23.388;2023-03-26T09:04:18;95230.22;;;24.47;31.50
19590;BME280;12231;42.782;23.388;2023-03-26T09:07:04;95228.41;;;26.36;30.31
19590;BME280;12231;42.782;23.388;2023-03-26T09:26:03;95196.13;;;26.47;30.02
19590;BME280;12231;42.782;23.388;2023-03-26T09:29:02;95199.91;;;28.15;28.08
19590;BME280;12231;42.782;23.388;2023-03-26T09:31:53;95209.41;;;23.79;32.78
19590;BME280;12231;42.782;23.388;2023-03-26T09:34:28;95211.63;;;23.76;32.85
19590;BME280;12231;42.782;23.388;2023-03-26T09:36:55;95200.53;;;23.51;33.01
19590;BME280;12231;42.782;23.388;2023-03-26T09:53:52;95174.22;;;24.45;30.90
19590;BME280;12231;42.782;23.388;2023-03-26T09:56:30;95168.81;;;24.89;31.89
19590;BME280;12231;42.782;23.388;2023-03-26T10:07:20;95157.19;;;25.87;31.10
19590;BME280;12231;42.782;23.388;2023-03-26T10:09:56;95148.84;;;27.04;29.80
19590;BME280;12231;42.782;23.388;2023-03-26T10:16:12;95156.50;;;23.89;32.41
19590;BME280;12231;42.782;23.388;2023-03-26T10:18:25;95154.84;;;23.30;33.69
19590;BME280;12231;42.782;23.388;2023-03-26T10:21:15;95139.47;;;24.20;33.44
19590;BME280;12231;42.782;23.388;2023-03-26T10:38:11;95101.69;;;24.91;32.35
19590;BME280;12231;42.782;23.388;2023-03-26T10:41:02;95097.97;;;25.07;30.19
19590;BME280;12231;42.782;23.388;2023-03-26T10:51:57;95095.69;;;21.05;37.67
19590;BME280;12231;42.782;23.388;2023-03-26T10:59:43;95085.75;;;21.39;35.68
19590;BME280;12231;42.782;23.388;2023-03-26T11:02:25;95081.00;;;19.74;39.21
19590;BME280;12231;42.782;23.388;2023-03-26T11:05:23;95085.19;;;20.89;36.95
19590;BME280;12231;42.782;23.388;2023-03-26T11:08:08;95086.25;;;21.42;34.92
19590;BME280;12231;42.782;23.388;2023-03-26T11:13:38;95072.41;;;21.56;36.63
19590;BME280;12231;42.782;23.388;2023-03-26T11:21:23;95075.81;;;18.81;38.68
19590;BME280;12231;42.782;23.388;2023-03-26T11:23:54;95066.75;;;19.68;38.20
19590;BME280;12231;42.782;23.388;2023-03-26T11:26:55;95057.88;;;20.51;35.85
19590;BME280;12231;42.782;23.388;2023-03-26T11:37:10;95044.00;;;20.59;34.74
19590;BME280;12231;42.782;23.388;2023-03-26T11:39:45;95041.69;;;20.31;35.53
19590;BME280;12231;42.782;23.388;2023-03-26T11:42:14;95038.38;;;20.13;35.38
19590;BME280;12231;42.782;23.388;2023-03-26T11:44:57;95023.63;;;19.72;36.01
19590;BME280;12231;42.782;23.388;2023-03-26T11:47:32;95026.16;;;20.22;36.41
19590;BME280;12231;42.782;23.388;2023-03-26T11:50:01;95023.19;;;20.33;35.67
19590;BME280;12231;42.782;23.388;2023-03-26T11:52:27;95015.19;;;20.34;35.04
19590;BME280;12231;42.782;23.388;2023-03-26T11:54:53;95013.03;;;18.90;37.49
19590;BME280;12231;42.782;23.388;2023-03-26T11:57:26;95001.28;;;20.10;35.21
19590;BME280;12231;42.782;23.388;2023-03-26T12:00:06;95002.25;;;20.25;35.02
19590;BME280;12231;42.782;23.388;2023-03-26T12:02:40;94997.16;;;19.91;35.92
19590;BME280;12231;42.782;23.388;2023-03-26T12:05:13;94991.81;;;20.17;33.98
19590;BME280;12231;42.782;23.388;2023-03-26T12:10:37;94990.50;;;20.29;33.38
19590;BME280;12231;42.782;23.388;2023-03-26T12:13:27;94988.81;;;20.68;33.79
19590;BME280;12231;42.782;23.388;2023-03-26T12:15:57;94979.72;;;20.16;33.14
19590;BME280;12231;42.782;23.388;2023-03-26T12:18:26;94977.97;;;19.51;35.05
19590;BME280;12231;42.782;23.388;2023-03-26T12:21:07;94967.59;;;20.39;33.31
19590;BME280;12231;42.782;23.388;2023-03-26T12:23:58;94962.34;;;20.47;33.36
19590;BME280;12231;42.782;23.388;2023-03-26T12:29:11;94957.47;;;20.83;31.63
19590;BME280;12231;42.782;23.388;2023-03-26T12:31:56;94954.38;;;20.16;34.94
19590;BME280;12231;42.782;23.388;2023-03-26T12:34:34;94950.00;;;20.72;32.45
19590;BME280;12231;42.782;23.388;2023-03-26T12:37:02;94947.13;;;20.02;34.04
19590;BME280;12231;42.782;23.388;2023-03-26T12:39:38;94935.44;;;20.61;33.40
19590;BME280;12231;42.782;23.388;2023-03-26T12:42:14;94940.91;;;20.11;33.64
19590;BME280;12231;42.782;23.388;2023-03-26T12:44:50;94932.06;;;20.12;33.49
19590;BME280;12231;42.782;23.388;2023-03-26T12:47:21;94933.88;;;20.28;32.45
19590;BME280;12231;42.782;23.388;2023-03-26T12:49:48;94928.63;;;20.12;32.55
19590;BME280;12231;42.782;23.388;2023-03-26T12:52:43;94925.28;;;20.66;31.59
19590;BME280;12231;42.782;23.388;2023-03-26T12:55:21;94924.66;;;20.48;30.62
19590;BME280;12231;42.782;23.388;2023-03-26T12:58:14;94919.84;;;18.99;33.25
19590;BME280;12231;42.782;23.388;2023-03-26T13:01:02;94927.31;;;19.44;32.56
19590;BME280;12231;42.782;23.388;2023-03-26T13:06:56;94921.47;;;19.90;32.29
19590;BME280;12231;42.782;23.388;2023-03-26T13:12:39;94916.66;;;20.41;32.44
19590;BME280;12231;42.782;23.388;2023-03-26T13:18:27;94908.38;;;19.98;30.93
19590;BME280;12231;42.782;23.388;2023-03-26T13:21:14;94900.53;;;19.82;31.73
19590;BME280;12231;42.782;23.388;2023-03-26T13:23:57;94906.25;;;19.93;30.58
19590;BME280;12231;42.782;23.388;2023-03-26T13:27:14;94903.31;;;19.88;30.89
19590;BME280;12231;42.782;23.388;2023-03-26T13:29:39;94906.41;;;19.52;31.84
19590;BME280;12231;42.782;23.388;2023-03-26T13:41:03;94898.09;;;19.72;30.84
19590;BME280;12231;42.782;23.388;2023-03-26T13:48:50;94891.88;;;19.57;30.96
19590;BME280;12231;42.782;23.388;2023-03-26T13:51:32;94902.16;;;19.67;30.96
19590;BME280;12231;42.782;23.388;2023-03-26T13:56:46;94888.75;;;19.78;30.77
19590;BME280;12231;42.782;23.388;2023-03-26T13:59:34;94897.25;;;19.48;29.91
19590;BME280;12231;42.782;23.388;2023-03-26T14:05:25;94886.25;;;19.28;30.01
19590;BME280;12231;42.782;23.388;2023-03-26T14:08:00;94887.97;;;19.77;29.19
19590;BME280;12231;42.782;23.388;2023-03-26T14:10:31;94884.53;;;19.53;29.59
19590;BME280;12231;42.782;23.388;2023-03-26T14:13:15;94879.28;;;19.53;28.36
19590;BME280;12231;42.782;23.388;2023-03-26T14:18:46;94869.72;;;19.03;29.94
19590;BME280;12231;42.782;23.388;2023-03-26T14:21:32;94872.03;;;19.23;29.12
19590;BME280;12231;42.782;23.388;2023-03-26T14:30:12;94876.91;;;19.17;29.21
19590;BME280;12231;42.782;23.388;2023-03-26T14:40:30;94867.72;;;18.81;29.00
19590;BME280;12231;42.782;23.388;2023-03-26T14:51:46;94858.06;;;18.82;27.75
19590;BME280;12231;42.782;23.388;2023-03-26T14:54:20;94857.63;;;18.94;28.28
19590;BME280;12231;42.782;23.388;2023-03-26T14:59:51;94864.09;;;18.74;26.79
19590;BME280;12231;42.782;23.388;2023-03-26T15:18:26;94879.63;;;17.91;28.68
19590;BME280;12231;42.782;23.388;2023-03-26T15:21:40;94879.78;;;18.15;27.94
19590;BME280;12231;42.782;23.388;2023-03-26T15:41:50;94884.47;;;17.86;30.54
19590;BME280;12231;42.782;23.388;2023-03-26T15:47:15;94881.56;;;17.89;31.11
19590;BME280;12231;42.782;23.388;2023-03-26T15:49:45;94889.84;;;17.85;31.27
19590;BME280;12231;42.782;23.388;2023-03-26T15:55:00;94886.66;;;17.73;31.23
19590;BME280;12231;42.782;23.388;2023-03-26T16:00:23;94886.69;;;17.55;31.67
19590;BME280;12231;42.782;23.388;2023-03-26T16:02:52;94880.44;;;17.66;32.07
19590;BME280;12231;42.782;23.388;2023-03-26T16:11:01;94882.66;;;17.26;31.38
19590;BME280;12231;42.782;23.388;2023-03-26T16:13:47;94889.44;;;17.19;32.11
19590;BME280;12231;42.782;23.388;2023-03-26T16:18:41;94884.56;;;16.71;33.57
19590;BME280;12231;42.782;23.388;2023-03-26T16:40:32;94897.84;;;15.95;35.28
19590;BME280;12231;42.782;23.388;2023-03-26T16:46:01;94894.34;;;15.67;35.16
19590;BME280;12231;42.782;23.388;2023-03-26T16:48:39;94896.53;;;15.62;35.66
19590;BME280;12231;42.782;23.388;2023-03-26T16:51:16;94903.22;;;15.55;35.59
19590;BME280;12231;42.782;23.388;2023-03-26T16:56:39;94895.44;;;15.46;36.73
19590;BME280;12231;42.782;23.388;2023-03-26T16:59:56;94894.34;;;15.39;36.32
19590;BME280;12231;42.782;23.388;2023-03-26T17:02:04;94893.25;;;15.32;36.90
19590;BME280;12231;42.782;23.388;2023-03-26T17:04:38;94903.94;;;15.48;65.81
19590;BME280;12231;42.782;23.388;2023-03-26T17:07:19;94895.41;;;15.74;45.46
19590;BME280;12231;42.782;23.388;2023-03-26T17:11:03;94902.28;;;15.66;37.79
19590;BME280;12231;42.782;23.388;2023-03-26T17:13:56;94906.25;;;15.51;37.81
19590;BME280;12231;42.782;23.388;2023-03-26T17:16:18;94913.88;;;15.33;38.39
19590;BME280;12231;42.782;23.388;2023-03-26T17:21:39;94910.41;;;14.85;41.64
19590;BME280;12231;42.782;23.388;2023-03-26T17:31:44;94921.66;;;13.74;42.60
19590;BME280;12231;42.782;23.388;2023-03-26T17:42:25;94919.25;;;13.62;44.39
19590;BME280;12231;42.782;23.388;2023-03-26T17:44:54;94917.34;;;13.43;45.84
19590;BME280;12231;42.782;23.388;2023-03-26T17:50:14;94922.19;;;13.16;47.95
19590;BME280;12231;42.782;23.388;2023-03-26T17:52:51;94915.16;;;12.96;48.97
19590;BME280;12231;42.782;23.388;2023-03-26T17:55:22;94920.16;;;12.77;49.44
19590;BME280;12231;42.782;23.388;2023-03-26T17:57:52;94918.75;;;12.62;48.43
19590;BME280;12231;42.782;23.388;2023-03-26T18:00:22;94916.41;;;12.59;48.46
19590;BME280;12231;42.782;23.388;2023-03-26T18:02:59;94915.00;;;12.66;48.31
19590;BME280;12231;42.782;23.388;2023-03-26T18:05:28;94918.28;;;12.57;49.43
19590;BME280;12231;42.782;23.388;2023-03-26T18:10:52;94924.41;;;12.56;50.27
19590;BME280;12231;42.782;23.388;2023-03-26T18:16:20;94925.03;;;12.15;49.54
19590;BME280;12231;42.782;23.388;2023-03-26T18:18:49;94920.56;;;12.17;51.28
19590;BME280;12231;42.782;23.388;2023-03-26T18:21:38;94920.56;;;12.17;50.53